Time;durP1;ratioP1;P1;durP2;ratioP2;P2;SDS_P1;SDS_P2;PMS_P1;PMS_P2;Temp;Humidity;BMP_temperature;BMP_pressure;BME280_temperature;BME280_humidity;BME280_pressure;Samples;Min_cycle;Max_cycle;Signal;HPM_P1;HPM_P2
2024/02/24 00:01:49;;;;;;;15.18;2.35;;;6.10;99.90;;;;;;5036620;28;20166;-81
2024/02/24 00:04:14;;;;;;;17.00;2.80;;;6.20;99.90;;;;;;5036812;28;20569;-81
2024/02/24 00:06:41;;;;;;;14.93;2.30;;;6.20;99.90;;;;;;5035021;28;20194;-81
2024/02/24 00:09:07;;;;;;;14.63;1.98;;;6.20;99.90;;;;;;5036989;28;20171;-81
2024/02/24 00:11:32;;;;;;;17.17;2.03;;;6.10;99.90;;;;;;5038810;28;20186;-82
2024/02/24 00:13:59;;;;;;;14.13;1.67;;;6.20;99.90;;;;;;5038057;28;20662;-82
2024/02/24 00:16:24;;;;;;;13.95;1.58;;;6.20;99.90;;;;;;5037880;28;20186;-82
2024/02/24 00:18:55;;;;;;;14.37;1.40;;;6.10;99.90;;;;;;5038296;28;20192;-82
2024/02/24 00:21:21;;;;;;;14.23;1.60;;;6.20;99.90;;;;;;5038641;28;20186;-82
2024/02/24 00:23:46;;;;;;;15.00;1.83;;;6.10;99.90;;;;;;5038523;28;20164;-82
2024/02/24 00:26:12;;;;;;;15.40;1.73;;;6.20;99.90;;;;;;5040773;28;20435;-81
2024/02/24 00:28:38;;;;;;;15.80;1.90;;;6.20;99.90;;;;;;5042680;28;20165;-82
2024/02/24 00:31:03;;;;;;;15.27;1.70;;;6.20;99.90;;;;;;5041413;28;20197;-82
2024/02/24 00:33:29;;;;;;;15.40;2.60;;;6.20;99.90;;;;;;5042205;28;20166;-82
2024/02/24 00:35:55;;;;;;;14.20;1.60;;;6.20;99.90;;;;;;5042015;28;20440;-82
2024/02/24 00:38:21;;;;;;;14.07;1.87;;;6.20;99.90;;;;;;5041603;28;20208;-82
2024/02/24 00:40:46;;;;;;;15.10;1.60;;;6.30;99.90;;;;;;5042391;28;20416;-82
2024/02/24 00:43:12;;;;;;;13.93;1.53;;;6.30;99.90;;;;;;5040252;28;20169;-82
2024/02/24 00:45:38;;;;;;;13.90;1.47;;;6.30;99.90;;;;;;5041864;28;20546;-82
2024/02/24 00:48:07;;;;;;;13.55;1.40;;;6.20;99.90;;;;;;5041689;28;20907;-82
2024/02/24 00:50:33;;;;;;;15.18;1.80;;;6.30;99.90;;;;;;5040973;28;20192;-82
2024/02/24 00:52:58;;;;;;;15.30;1.70;;;6.20;99.90;;;;;;5041535;28;20249;-82
2024/02/24 00:55:24;;;;;;;14.03;1.63;;;6.20;99.90;;;;;;5041343;28;20436;-82
2024/02/24 00:57:50;;;;;;;15.50;1.33;;;6.20;99.90;;;;;;5041593;28;20212;-82
2024/02/24 01:00:19;;;;;;;14.95;1.60;;;6.20;99.90;;;;;;5041140;28;20554;-82
2024/02/24 01:02:46;;;;;;;13.63;1.40;;;6.20;99.90;;;;;;5040250;28;20162;-82
2024/02/24 01:05:12;;;;;;;14.63;1.50;;;6.10;99.90;;;;;;5040136;28;20640;-82
2024/02/24 01:07:37;;;;;;;14.67;1.83;;;6.00;99.90;;;;;;5041006;28;20205;-82
2024/02/24 01:10:03;;;;;;;14.70;1.77;;;6.10;99.90;;;;;;5041157;28;20458;-82
2024/02/24 01:12:29;;;;;;;14.23;2.20;;;6.10;99.90;;;;;;5041593;28;20166;-82
2024/02/24 01:14:54;;;;;;;14.80;1.90;;;6.10;99.90;;;;;;5041175;28;20400;-82
2024/02/24 01:17:21;;;;;;;15.03;2.60;;;6.00;99.90;;;;;;5040305;28;20188;-82
2024/02/24 01:19:46;;;;;;;17.30;1.85;;;6.00;99.90;;;;;;5040313;28;20552;-82
2024/02/24 01:22:16;;;;;;;14.40;1.50;;;6.00;99.90;;;;;;5040386;28;20158;-82
2024/02/24 01:24:43;;;;;;;14.70;1.40;;;6.00;99.90;;;;;;5021432;28;20177;-81
2024/02/24 01:27:08;;;;;;;14.38;1.65;;;5.90;99.90;;;;;;5039949;28;20170;-81
2024/02/24 01:29:34;;;;;;;15.20;1.70;;;5.90;99.90;;;;;;5039544;28;20217;-82
2024/02/24 01:32:01;;;;;;;13.90;1.40;;;6.00;99.90;;;;;;5040164;28;20670;-81
2024/02/24 01:34:29;;;;;;;14.68;1.70;;;6.00;99.90;;;;;;5038615;28;20200;-81
2024/02/24 01:36:55;;;;;;;14.23;1.42;;;6.00;99.90;;;;;;5039145;28;20296;-81
2024/02/24 01:39:21;;;;;;;13.45;1.27;;;6.00;99.90;;;;;;5039242;28;20500;-82
2024/02/24 01:41:46;;;;;;;13.37;1.30;;;6.00;99.90;;;;;;5039856;28;20178;-81
2024/02/24 01:44:18;;;;;;;14.03;1.50;;;5.90;99.90;;;;;;5039334;28;20197;-81
2024/02/24 01:46:45;;;;;;;13.85;1.58;;;6.00;99.90;;;;;;5021903;28;21009;-82
2024/02/24 01:49:10;;;;;;;13.45;1.10;;;5.90;99.90;;;;;;5039500;28;20162;-80
2024/02/24 01:51:36;;;;;;;14.40;1.60;;;5.90;99.90;;;;;;5039721;28;20190;-82
2024/02/24 01:54:03;;;;;;;13.60;1.23;;;5.90;99.90;;;;;;5039312;28;20166;-82
2024/02/24 01:56:28;;;;;;;13.25;1.15;;;5.90;99.90;;;;;;5038641;28;20186;-81
2024/02/24 01:58:54;;;;;;;13.80;1.57;;;6.00;99.90;;;;;;5038961;28;20162;-81
2024/02/24 02:01:20;;;;;;;14.70;1.77;;;6.00;99.90;;;;;;5038846;28;20190;-81
2024/02/24 02:03:46;;;;;;;13.25;1.02;;;6.00;99.90;;;;;;5038843;28;20220;-81
2024/02/24 02:06:12;;;;;;;13.82;1.50;;;6.00;99.90;;;;;;5039389;28;20190;-81
2024/02/24 02:08:38;;;;;;;13.33;1.27;;;5.90;99.90;;;;;;5038546;28;20200;-82
2024/02/24 02:11:03;;;;;;;13.50;1.23;;;5.90;99.90;;;;;;5038473;28;20189;-81
2024/02/24 02:13:29;;;;;;;13.67;1.40;;;5.90;99.90;;;;;;5039222;28;20201;-81
2024/02/24 02:15:56;;;;;;;17.70;2.17;;;5.80;99.90;;;;;;5039075;28;20186;-81
2024/02/24 02:18:24;;;;;;;13.23;1.10;;;5.80;99.90;;;;;;5039024;28;20207;-82
2024/02/24 02:20:51;;;;;;;13.27;1.02;;;5.80;99.90;;;;;;5038612;28;20227;-81
2024/02/24 02:23:17;;;;;;;14.60;1.02;;;5.80;99.90;;;;;;5037050;28;20170;-82
2024/02/24 02:25:43;;;;;;;13.10;0.90;;;5.90;99.90;;;;;;5038117;28;20162;-81
2024/02/24 02:28:09;;;;;;;13.53;1.10;;;5.80;99.90;;;;;;5037991;28;20905;-81
2024/02/24 02:30:34;;;;;;;13.13;0.90;;;5.90;99.90;;;;;;5038388;28;20201;-81
2024/02/24 02:33:01;;;;;;;13.43;1.10;;;5.90;99.90;;;;;;5040498;28;20170;-81
2024/02/24 02:35:27;;;;;;;13.63;1.20;;;5.80;99.90;;;;;;5040053;28;20576;-81
2024/02/24 02:37:53;;;;;;;13.18;1.13;;;5.90;99.90;;;;;;5038225;28;20166;-82
2024/02/24 02:40:18;;;;;;;13.80;1.13;;;5.90;99.90;;;;;;5038890;28;20189;-81
2024/02/24 02:42:45;;;;;;;14.80;0.97;;;6.00;99.90;;;;;;5037715;28;20162;-81
2024/02/24 02:45:10;;;;;;;14.48;1.20;;;5.90;99.90;;;;;;5038378;28;20244;-81
2024/02/24 02:47:39;;;;;;;13.50;0.93;;;5.90;99.90;;;;;;5037289;28;20162;-81
2024/02/24 02:50:05;;;;;;;13.25;1.10;;;5.90;99.90;;;;;;5038079;28;20417;-81
2024/02/24 02:52:31;;;;;;;13.43;1.20;;;5.90;99.90;;;;;;5037741;28;20196;-81
2024/02/24 02:54:57;;;;;;;13.80;1.10;;;5.90;99.90;;;;;;5037743;28;20173;-81
2024/02/24 02:57:23;;;;;;;13.57;1.33;;;5.90;99.90;;;;;;5037249;28;20247;-81
2024/02/24 02:59:49;;;;;;;15.45;1.48;;;5.90;99.90;;;;;;5037466;28;20217;-81
2024/02/24 03:02:15;;;;;;;13.80;1.17;;;5.90;99.90;;;;;;5037532;28;20162;-81
2024/02/24 03:04:40;;;;;;;14.00;1.10;;;6.00;99.90;;;;;;5038390;28;20256;-81
2024/02/24 03:07:06;;;;;;;13.40;1.10;;;5.90;99.90;;;;;;5036802;28;20186;-81
2024/02/24 03:09:32;;;;;;;13.50;1.40;;;6.00;99.90;;;;;;5036821;28;20169;-81
2024/02/24 03:11:57;;;;;;;13.90;1.07;;;5.90;99.90;;;;;;5037608;28;20166;-81
2024/02/24 03:14:23;;;;;;;19.50;1.10;;;5.80;99.90;;;;;;5036930;28;20161;-81
2024/02/24 03:16:49;;;;;;;13.60;0.90;;;5.90;99.90;;;;;;5037875;28;20189;-81
2024/02/24 03:19:15;;;;;;;14.50;1.10;;;5.90;99.90;;;;;;5039638;28;20787;-82
2024/02/24 03:21:43;;;;;;;13.20;1.00;;;5.90;99.90;;;;;;5020489;28;20186;-82
2024/02/24 03:24:09;;;;;;;14.40;1.10;;;6.00;99.90;;;;;;5037210;28;20518;-82
2024/02/24 03:26:35;;;;;;;13.70;1.13;;;5.90;99.90;;;;;;5037753;28;20173;-82
2024/02/24 03:29:00;;;;;;;13.80;1.10;;;5.80;99.90;;;;;;5038194;28;20595;-82
2024/02/24 03:31:26;;;;;;;13.40;1.20;;;5.80;99.90;;;;;;5038396;28;20539;-82
2024/02/24 03:33:55;;;;;;;13.47;1.10;;;5.80;99.90;;;;;;5038250;28;20169;-82
2024/02/24 03:36:20;;;;;;;13.25;1.02;;;5.80;99.90;;;;;;5038202;28;20315;-82
2024/02/24 03:38:46;;;;;;;13.23;1.00;;;5.70;99.90;;;;;;5038062;28;20584;-82
2024/02/24 03:41:12;;;;;;;13.80;1.10;;;5.80;99.90;;;;;;5038172;28;20186;-81
2024/02/24 03:43:38;;;;;;;13.20;0.97;;;5.70;99.90;;;;;;5038385;28;20192;-82
2024/02/24 03:46:05;;;;;;;13.23;1.00;;;5.70;99.90;;;;;;5038376;28;20216;-82
2024/02/24 03:48:31;;;;;;;13.75;1.20;;;5.70;99.90;;;;;;5037823;28;20516;-82
2024/02/24 03:50:57;;;;;;;13.50;1.13;;;5.70;99.90;;;;;;5037876;28;20244;-82
2024/02/24 03:53:23;;;;;;;13.90;1.02;;;5.70;99.90;;;;;;5037850;28;20412;-82
2024/02/24 03:55:50;;;;;;;14.10;1.10;;;5.60;99.90;;;;;;5038074;28;20193;-82
2024/02/24 03:58:16;;;;;;;13.07;1.00;;;5.60;99.90;;;;;;5037927;28;20535;-82
2024/02/24 04:00:45;;;;;;;13.65;1.20;;;5.60;99.90;;;;;;5041929;28;20224;-82
2024/02/24 04:03:11;;;;;;;13.40;1.10;;;5.60;99.90;;;;;;5042243;28;20169;-82
2024/02/24 04:05:37;;;;;;;13.10;0.90;;;5.60;99.90;;;;;;5042206;28;20848;-81
2024/02/24 04:08:03;;;;;;;13.18;0.85;;;5.70;99.90;;;;;;5041862;28;20181;-82
2024/02/24 04:10:29;;;;;;;13.38;1.10;;;5.60;99.90;;;;;;5041617;28;20181;-81
2024/02/24 04:12:55;;;;;;;13.45;1.05;;;5.60;99.90;;;;;;5040804;28;20201;-82
2024/02/24 04:15:22;;;;;;;13.07;0.90;;;5.60;99.90;;;;;;5041743;28;20162;-82
2024/02/24 04:17:49;;;;;;;13.18;1.02;;;5.60;99.90;;;;;;5041727;28;20893;-82
2024/02/24 04:20:15;;;;;;;13.32;0.88;;;5.60;99.90;;;;;;5041295;28;20178;-81
2024/02/24 04:22:41;;;;;;;13.25;1.00;;;5.60;99.90;;;;;;5041593;28;20288;-82
2024/02/24 04:25:09;;;;;;;13.30;0.90;;;5.70;99.90;;;;;;5041843;28;20622;-81
2024/02/24 04:27:34;;;;;;;13.20;0.90;;;5.70;99.90;;;;;;5041424;28;20483;-81
2024/02/24 04:30:00;;;;;;;12.90;0.80;;;5.60;99.90;;;;;;5040214;28;20584;-81
2024/02/24 04:32:27;;;;;;;13.13;1.00;;;5.60;99.90;;;;;;5039898;28;20400;-80
2024/02/24 04:34:53;;;;;;;13.15;0.82;;;5.60;99.90;;;;;;5038975;28;20681;-81
2024/02/24 04:37:18;;;;;;;13.80;1.30;;;5.50;99.90;;;;;;5022275;28;20274;-82
2024/02/24 04:39:44;;;;;;;13.60;1.27;;;5.50;99.90;;;;;;5040585;28;20193;-82
2024/02/24 04:42:10;;;;;;;13.23;0.90;;;5.50;99.90;;;;;;5038601;28;20224;-81
2024/02/24 04:44:35;;;;;;;13.80;0.90;;;5.40;99.90;;;;;;5040009;28;20216;-81
2024/02/24 04:47:01;;;;;;;13.40;1.00;;;5.50;99.90;;;;;;5039503;28;20170;-81
2024/02/24 04:49:27;;;;;;;13.70;1.00;;;5.40;99.90;;;;;;5038486;28;20184;-81
2024/02/24 04:51:52;;;;;;;13.83;1.30;;;5.40;99.90;;;;;;5038440;28;20550;-81
2024/02/24 04:54:18;;;;;;;14.67;1.20;;;5.40;99.90;;;;;;5038085;28;20542;-81
2024/02/24 04:56:43;;;;;;;13.60;1.13;;;5.40;99.90;;;;;;5039511;28;20197;-81
2024/02/24 04:59:09;;;;;;;13.50;1.00;;;5.40;99.90;;;;;;5039436;28;20641;-81
2024/02/24 05:01:35;;;;;;;13.90;1.40;;;5.40;99.90;;;;;;5039643;28;20182;-81
2024/02/24 05:04:02;;;;;;;13.35;0.98;;;5.40;99.90;;;;;;5038203;28;20204;-81
2024/02/24 05:06:28;;;;;;;13.57;1.15;;;5.50;99.90;;;;;;5038945;28;20200;-81
2024/02/24 05:08:54;;;;;;;13.43;1.00;;;5.40;99.90;;;;;;5038256;28;20173;-81
2024/02/24 05:11:20;;;;;;;13.35;1.10;;;5.40;99.90;;;;;;5021449;28;20725;-80
2024/02/24 05:13:46;;;;;;;13.57;1.10;;;5.40;99.90;;;;;;5039026;28;20170;-81
2024/02/24 05:16:13;;;;;;;13.90;1.13;;;5.40;99.90;;;;;;5039141;28;20202;-82
2024/02/24 05:18:39;;;;;;;13.75;1.15;;;5.30;99.90;;;;;;5039437;28;20177;-81
2024/02/24 05:21:05;;;;;;;14.00;1.10;;;5.30;99.90;;;;;;5038730;28;20190;-81
2024/02/24 05:23:30;;;;;;;13.50;1.10;;;5.30;99.90;;;;;;5039044;28;20192;-81
2024/02/24 05:25:56;;;;;;;14.77;1.20;;;5.30;99.90;;;;;;5039290;28;20170;-81
2024/02/24 05:28:21;;;;;;;13.60;1.17;;;5.30;99.90;;;;;;5039414;28;20166;-81
2024/02/24 05:30:47;;;;;;;13.50;1.13;;;5.30;99.90;;;;;;5039326;28;20200;-81
2024/02/24 05:33:13;;;;;;;13.57;1.30;;;5.30;99.90;;;;;;5038906;28;20250;-81
2024/02/24 05:35:39;;;;;;;14.30;1.27;;;5.30;99.90;;;;;;5039363;28;20192;-81
2024/02/24 05:38:05;;;;;;;13.03;0.80;;;5.40;99.90;;;;;;5038544;28;20162;-81
2024/02/24 05:40:31;;;;;;;13.23;0.87;;;5.40;99.90;;;;;;5041211;28;20223;-81
2024/02/24 05:42:56;;;;;;;14.23;1.10;;;5.40;99.90;;;;;;5040434;28;20396;-82
2024/02/24 05:45:22;;;;;;;13.33;1.00;;;5.30;99.90;;;;;;5039873;28;20169;-82
2024/02/24 05:47:48;;;;;;;13.50;1.00;;;5.30;99.90;;;;;;5022172;28;20165;-82
2024/02/24 05:50:13;;;;;;;14.00;1.30;;;5.40;99.90;;;;;;5039946;28;20191;-82
2024/02/24 05:52:39;;;;;;;13.87;1.10;;;5.50;99.90;;;;;;5040215;28;20194;-82
2024/02/24 05:55:07;;;;;;;13.60;1.33;;;5.50;99.90;;;;;;5039877;28;20558;-82
2024/02/24 05:57:36;;;;;;;13.25;1.20;;;5.50;99.90;;;;;;5039703;28;20675;-82
2024/02/24 06:00:04;;;;;;;16.60;1.40;;;5.50;99.90;;;;;;5038457;28;20194;-82
2024/02/24 06:02:30;;;;;;;16.30;1.30;;;5.50;99.90;;;;;;5039732;28;20505;-82
2024/02/24 06:04:56;;;;;;;13.80;1.20;;;5.50;99.90;;;;;;5040319;28;20165;-81
2024/02/24 06:07:21;;;;;;;13.20;1.17;;;5.50;99.90;;;;;;5021970;28;20177;-82
2024/02/24 06:09:47;;;;;;;13.60;1.13;;;5.40;99.90;;;;;;5039339;28;20185;-82
2024/02/24 06:12:13;;;;;;;13.37;1.10;;;5.40;99.90;;;;;;5040257;28;20189;-82
2024/02/24 06:14:38;;;;;;;13.57;1.17;;;5.40;99.90;;;;;;5039637;28;20650;-82
2024/02/24 06:17:04;;;;;;;13.47;1.20;;;5.40;99.90;;;;;;5039037;28;20196;-82
2024/02/24 06:19:30;;;;;;;14.17;1.47;;;5.40;99.90;;;;;;5039224;28;20166;-81
2024/02/24 06:21:55;;;;;;;13.50;1.30;;;5.40;99.90;;;;;;5038597;28;20194;-82
2024/02/24 06:24:21;;;;;;;13.43;1.30;;;5.40;99.90;;;;;;5038931;28;20227;-82
2024/02/24 06:26:47;;;;;;;14.17;1.60;;;5.50;99.90;;;;;;5037991;28;20658;-81
2024/02/24 06:29:15;;;;;;;13.63;1.20;;;5.40;99.90;;;;;;5039132;28;20531;-82
2024/02/24 06:31:41;;;;;;;14.23;1.20;;;5.50;99.90;;;;;;5021202;28;20193;-82
2024/02/24 06:34:07;;;;;;;19.33;1.70;;;5.40;99.90;;;;;;5039379;28;20201;-81
2024/02/24 06:36:33;;;;;;;13.60;1.20;;;5.50;99.90;;;;;;5038557;28;20190;-82
2024/02/24 06:38:58;;;;;;;14.40;1.90;;;5.50;99.90;;;;;;5020705;28;20226;-82
2024/02/24 06:41:24;;;;;;;13.67;1.57;;;5.50;99.90;;;;;;5038241;28;20193;-81
2024/02/24 06:43:53;;;;;;;15.40;1.60;;;5.60;99.90;;;;;;5038351;28;20162;-80
2024/02/24 06:46:19;;;;;;;14.85;2.03;;;5.60;99.90;;;;;;5037656;28;20217;-81
2024/02/24 06:48:45;;;;;;;14.00;1.47;;;5.60;99.90;;;;;;5037615;28;20162;-80
2024/02/24 06:51:11;;;;;;;13.57;1.60;;;5.70;99.90;;;;;;5036368;28;20193;-80
2024/02/24 06:53:37;;;;;;;14.07;1.67;;;5.70;99.90;;;;;;5036208;28;20170;-80
2024/02/24 06:56:09;;;;;;;14.00;1.80;;;5.60;99.90;;;;;;5036617;28;20539;-80
2024/02/24 06:58:35;;;;;;;14.10;1.75;;;5.70;99.90;;;;;;5034979;28;20170;-80
2024/02/24 07:01:05;;;;;;;16.05;1.85;;;5.70;99.90;;;;;;5037148;28;20191;-81
2024/02/24 07:03:32;;;;;;;16.30;1.92;;;5.80;99.90;;;;;;5036803;28;20173;-80
2024/02/24 07:06:03;;;;;;;16.73;1.73;;;5.80;99.90;;;;;;5037259;28;20216;-80
2024/02/24 07:08:29;;;;;;;13.90;1.80;;;5.90;99.90;;;;;;5035844;28;20162;-80
2024/02/24 07:10:55;;;;;;;15.40;2.30;;;5.80;99.90;;;;;;5036715;28;20277;-80
2024/02/24 07:13:21;;;;;;;13.97;1.87;;;5.80;99.90;;;;;;5036598;28;20169;-80
2024/02/24 07:15:47;;;;;;;14.60;1.92;;;5.80;99.90;;;;;;5036424;28;20677;-80
2024/02/24 07:18:12;;;;;;;15.93;1.90;;;5.80;99.90;;;;;;5036854;28;20174;-80
2024/02/24 07:20:38;;;;;;;14.77;1.80;;;5.80;99.90;;;;;;5036509;28;20186;-79
2024/02/24 07:23:04;;;;;;;14.00;1.80;;;5.80;99.90;;;;;;5035123;28;20201;-81
2024/02/24 07:25:29;;;;;;;14.90;2.00;;;5.90;99.90;;;;;;5036211;28;20158;-80
2024/02/24 07:27:55;;;;;;;15.80;1.50;;;5.90;99.90;;;;;;5036111;28;20591;-80
2024/02/24 07:30:21;;;;;;;14.70;2.07;;;6.00;99.90;;;;;;5035816;28;20185;-80
2024/02/24 07:32:46;;;;;;;15.70;1.53;;;6.00;99.90;;;;;;5034986;28;20204;-80
2024/02/24 07:35:12;;;;;;;21.30;1.90;;;6.00;99.90;;;;;;5036143;28;20186;-80
2024/02/24 07:37:38;;;;;;;14.30;1.70;;;6.10;99.90;;;;;;5035723;28;20189;-80
2024/02/24 07:40:04;;;;;;;14.00;1.87;;;6.10;99.90;;;;;;5036167;28;20213;-80
2024/02/24 07:42:30;;;;;;;15.45;1.58;;;6.10;99.90;;;;;;5018012;28;20172;-80
2024/02/24 07:44:55;;;;;;;13.73;1.50;;;6.00;99.90;;;;;;5034937;28;20162;-80
2024/02/24 07:47:21;;;;;;;14.20;1.40;;;6.10;99.90;;;;;;5035583;28;20416;-79
2024/02/24 07:49:47;;;;;;;13.50;1.37;;;6.10;99.90;;;;;;5035168;28;20268;-81
2024/02/24 07:52:12;;;;;;;14.60;1.93;;;6.10;99.90;;;;;;5035651;28;20581;-80
2024/02/24 07:54:38;;;;;;;14.60;2.27;;;6.10;99.90;;;;;;5035937;28;20705;-80
2024/02/24 07:57:04;;;;;;;15.03;2.07;;;6.20;99.90;;;;;;5036261;28;20232;-80
2024/02/24 07:59:30;;;;;;;16.73;2.03;;;6.20;99.90;;;;;;5018387;28;20158;-81
2024/02/24 08:01:55;;;;;;;14.37;1.80;;;6.20;99.90;;;;;;5020050;28;20162;-81
2024/02/24 08:04:21;;;;;;;13.23;1.43;;;6.20;99.90;;;;;;5020194;28;20281;-81
2024/02/24 08:06:46;;;;;;;14.67;2.13;;;6.20;99.90;;;;;;5037229;28;20536;-81
2024/02/24 08:09:12;;;;;;;15.70;2.03;;;6.20;99.90;;;;;;5036736;28;20174;-81
2024/02/24 08:11:40;;;;;;;14.70;2.10;;;6.20;99.90;;;;;;5036683;28;20272;-81
2024/02/24 08:14:09;;;;;;;14.50;1.63;;;6.30;99.90;;;;;;5036666;28;20166;-81
2024/02/24 08:16:35;;;;;;;15.57;1.85;;;6.30;99.90;;;;;;5020158;28;20289;-81
2024/02/24 08:19:01;;;;;;;15.70;1.48;;;6.20;99.90;;;;;;5036677;28;20166;-81
2024/02/24 08:21:28;;;;;;;13.50;1.42;;;6.30;99.90;;;;;;5037132;28;20186;-81
2024/02/24 08:23:54;;;;;;;14.52;1.30;;;6.40;99.90;;;;;;5036457;28;20165;-81
2024/02/24 08:26:20;;;;;;;13.20;1.07;;;6.40;99.90;;;;;;5036705;28;20632;-81
2024/02/24 08:28:45;;;;;;;13.70;0.90;;;6.50;99.90;;;;;;5035860;28;20166;-81
2024/02/24 08:31:11;;;;;;;13.20;0.90;;;6.40;99.90;;;;;;5035098;28;20444;-81
2024/02/24 08:33:40;;;;;;;13.10;0.97;;;6.40;99.90;;;;;;5036444;28;20170;-81
2024/02/24 08:36:06;;;;;;;13.23;0.98;;;6.40;99.90;;;;;;5036248;28;20189;-81
2024/02/24 08:38:32;;;;;;;13.23;0.90;;;6.30;99.90;;;;;;5036421;28;20166;-81
2024/02/24 08:40:57;;;;;;;13.40;1.00;;;6.40;99.90;;;;;;5036567;28;20189;-81
2024/02/24 08:43:23;;;;;;;13.60;1.10;;;6.40;99.90;;;;;;5034959;28;20417;-81
2024/02/24 08:45:49;;;;;;;14.60;1.10;;;6.50;99.90;;;;;;5037474;28;20173;-81
2024/02/24 08:48:14;;;;;;;13.10;0.87;;;6.50;99.90;;;;;;5040516;28;20245;-80
2024/02/24 08:50:40;;;;;;;13.43;1.20;;;6.50;99.90;;;;;;5038690;28;20273;-81
2024/02/24 08:53:06;;;;;;;13.20;1.00;;;6.60;99.90;;;;;;5039801;28;20166;-81
2024/02/24 08:55:32;;;;;;;13.20;1.13;;;6.60;99.90;;;;;;5038518;28;20918;-81
2024/02/24 08:57:57;;;;;;;13.03;0.80;;;6.60;99.90;;;;;;5039734;28;20162;-81
2024/02/24 09:00:23;;;;;;;13.27;1.00;;;6.60;99.90;;;;;;5040140;28;20605;-81
2024/02/24 09:02:49;;;;;;;12.97;0.80;;;6.60;99.90;;;;;;5039517;28;20185;-81
2024/02/24 09:05:15;;;;;;;13.50;1.00;;;6.60;99.90;;;;;;5039847;28;20193;-82
2024/02/24 09:07:41;;;;;;;13.80;0.80;;;6.70;99.90;;;;;;5038929;28;20204;-81
2024/02/24 09:10:07;;;;;;;13.07;0.80;;;6.70;99.90;;;;;;5021408;28;20193;-81
2024/02/24 09:12:33;;;;;;;13.60;0.80;;;6.70;99.90;;;;;;5038587;28;20228;-81
2024/02/24 09:14:58;;;;;;;13.23;0.80;;;6.90;99.90;;;;;;5020478;28;20170;-81
2024/02/24 09:17:24;;;;;;;13.70;1.23;;;7.00;99.90;;;;;;5038132;28;20190;-80
2024/02/24 09:19:50;;;;;;;13.07;0.87;;;7.00;99.90;;;;;;5020365;28;20182;-80
2024/02/24 09:22:15;;;;;;;13.37;1.00;;;6.90;99.90;;;;;;5038333;28;20162;-80
2024/02/24 09:24:41;;;;;;;14.60;1.27;;;7.00;99.60;;;;;;5038596;28;20215;-80
2024/02/24 09:27:07;;;;;;;13.70;1.20;;;7.00;97.40;;;;;;5038384;28;20192;-81
2024/02/24 09:29:32;;;;;;;13.13;0.80;;;6.90;96.40;;;;;;5020750;28;20240;-80
2024/02/24 09:31:58;;;;;;;13.87;0.87;;;7.00;96.70;;;;;;5037598;28;20166;-80
2024/02/24 09:34:24;;;;;;;15.00;1.23;;;7.10;83.70;;;;;;5038515;28;20196;-80
2024/02/24 09:36:49;;;;;;;13.37;1.00;;;7.10;67.30;;;;;;5036499;28;20629;-80
2024/02/24 09:39:18;;;;;;;20.73;1.10;;;7.00;62.50;;;;;;5020054;28;20170;-80
2024/02/24 09:41:43;;;;;;;13.38;0.90;;;7.10;66.10;;;;;;5019897;28;20190;-80
2024/02/24 09:44:09;;;;;;;13.33;1.17;;;7.40;70.50;;;;;;5038343;28;20249;-80
2024/02/24 09:46:36;;;;;;;13.57;1.10;;;7.70;53.30;;;;;;5036747;28;20181;-80
2024/02/24 09:49:02;;;;;;;13.27;0.90;;;7.90;60.40;;;;;;5038488;28;20440;-80
2024/02/24 09:51:29;;;;;;;13.30;0.90;;;8.20;31.90;;;;;;5037880;28;20201;-80
2024/02/24 09:53:57;;;;;;;13.38;1.00;;;8.50;45.10;;;;;;5038287;28;20178;-80
2024/02/24 09:56:23;;;;;;;13.98;1.20;;;8.60;17.90;;;;;;5037344;28;20186;-80
2024/02/24 09:58:53;;;;;;;15.07;1.05;;;8.70;8.60;;;;;;5036148;28;20654;-80
2024/02/24 10:01:19;;;;;;;13.63;1.05;;;8.90;9.60;;;;;;5037293;28;20206;-81
2024/02/24 10:03:46;;;;;;;14.30;1.08;;;9.00;1.30;;;;;;5037404;28;20166;-80
2024/02/24 10:06:12;;;;;;;15.60;1.15;;;9.10;1.00;;;;;;5035928;28;20245;-80
2024/02/24 10:08:38;;;;;;;14.20;1.10;;;9.40;5.20;;;;;;5037018;28;20168;-80
2024/02/24 10:11:04;;;;;;;13.48;0.90;;;9.40;1.00;;;;;;5037219;28;20287;-81
2024/02/24 10:13:34;;;;;;;13.63;0.82;;;9.50;1.00;;;;;;5037501;28;20219;-80
2024/02/24 10:16:07;;;;;;;13.85;0.70;;;9.30;1.00;;;;;;5037390;28;20186;-80
2024/02/24 10:18:47;;;;;;;15.10;0.98;;;9.00;1.00;;;;;;5037440;28;20313;-80
2024/02/24 10:21:14;;;;;;;13.77;0.90;;;8.90;1.00;;;;;;5037175;28;20196;-80
2024/02/24 10:23:40;;;;;;;13.82;0.90;;;8.60;1.00;;;;;;5040507;28;20216;-80
2024/02/24 10:26:07;;;;;;;13.60;0.80;;;8.60;1.00;;;;;;5039109;28;20631;-81
2024/02/24 10:28:35;;;;;;;13.75;1.10;;;8.80;1.00;;;;;;5038189;28;20188;-81
2024/02/24 10:31:01;;;;;;;13.45;1.05;;;8.80;1.00;;;;;;5019968;28;20616;-81
2024/02/24 10:33:49;;;;;;;;;;;;;;;;;;;;;
2024/02/24 10:36:16;;;;;;;13.57;0.85;;;8.70;1.00;;;;;;5037597;28;20204;-81
2024/02/24 10:38:44;;;;;;;14.07;0.85;;;8.80;1.00;;;;;;5020445;28;20169;-81
2024/02/24 10:41:11;;;;;;;13.73;1.30;;;8.90;1.00;;;;;;5019454;28;20186;-81
2024/02/24 10:43:38;;;;;;;14.10;1.13;;;9.00;1.00;;;;;;5036717;28;20174;-81
2024/02/24 10:46:35;;;;;;;13.43;0.95;;;9.00;1.00;;;;;;5037942;28;20215;-81
2024/02/24 10:49:13;;;;;;;13.88;1.20;;;8.90;1.00;;;;;;5037087;28;20178;-81
2024/02/24 10:51:41;;;;;;;13.40;0.80;;;8.90;1.00;;;;;;5037198;28;20193;-81
2024/02/24 10:54:16;;;;;;;13.77;1.10;;;8.80;1.00;;;;;;5038271;28;20244;-81
2024/02/24 10:56:42;;;;;;;14.02;1.10;;;8.50;1.00;;;;;;5037587;28;20657;-81
2024/02/24 10:59:11;;;;;;;13.45;0.90;;;7.90;17.60;;;;;;5037204;28;20173;-81
2024/02/24 11:01:46;;;;;;;13.63;1.13;;;7.70;54.90;;;;;;5037261;28;20194;-81
2024/02/24 11:04:45;;;;;;;13.98;1.13;;;8.20;56.50;;;;;;5037766;28;20165;-81
2024/02/24 11:07:52;;;;;;;13.80;0.90;;;8.70;50.80;;;;;;5003543;28;20236;-81
2024/02/24 11:10:21;;;;;;;13.50;0.90;;;9.10;30.00;;;;;;5036411;28;20269;-82
2024/02/24 11:12:51;;;;;;;14.63;1.63;;;9.30;17.70;;;;;;5037352;28;20169;-82
2024/02/24 11:15:24;;;;;;;14.80;1.20;;;8.90;3.70;;;;;;5037800;28;20241;-82
2024/02/24 11:17:52;;;;;;;16.40;1.40;;;8.80;12.90;;;;;;5037238;28;20198;-81
2024/02/24 11:20:42;;;;;;;13.95;1.23;;;8.90;18.80;;;;;;5037244;28;20185;-81
2024/02/24 11:23:32;;;;;;;13.80;0.90;;;9.10;19.10;;;;;;5037889;28;20154;-81
2024/02/24 11:26:10;;;;;;;13.65;0.98;;;8.80;8.30;;;;;;5037993;28;20154;-81
2024/02/24 11:28:39;;;;;;;13.60;1.00;;;8.70;1.00;;;;;;5037202;28;20250;-81
2024/02/24 11:31:05;;;;;;;13.30;0.80;;;8.70;1.00;;;;;;5036684;28;20200;-80
2024/02/24 11:33:37;;;;;;;13.50;0.97;;;8.60;1.00;;;;;;5037141;28;20166;-81
2024/02/24 11:36:05;;;;;;;13.73;1.02;;;8.70;1.00;;;;;;5034554;28;20972;-80
2024/02/24 11:38:31;;;;;;;14.00;1.40;;;9.00;1.00;;;;;;5035353;28;20173;-80
2024/02/24 11:40:58;;;;;;;13.52;1.00;;;9.20;1.00;;;;;;5017447;28;20272;-80
2024/02/24 11:43:24;;;;;;;13.45;0.90;;;8.80;1.00;;;;;;5017448;28;20257;-80
2024/02/24 11:45:53;;;;;;;13.97;1.10;;;8.60;1.00;;;;;;5035339;28;20678;-80
2024/02/24 11:48:19;;;;;;;13.30;0.80;;;8.60;1.00;;;;;;5017311;28;20169;-80
2024/02/24 11:50:46;;;;;;;14.60;1.30;;;8.60;1.00;;;;;;5034898;28;20185;-79
2024/02/24 11:53:14;;;;;;;13.68;1.00;;;8.90;1.00;;;;;;5035006;28;20170;-80
2024/02/24 11:55:40;;;;;;;14.05;1.10;;;8.90;1.00;;;;;;5016773;28;20569;-80
2024/02/24 11:58:09;;;;;;;14.32;0.98;;;8.90;1.00;;;;;;5034543;28;20177;-80
2024/02/24 12:00:39;;;;;;;16.17;0.93;;;9.30;1.00;;;;;;5034543;28;20188;-79
2024/02/24 12:03:10;;;;;;;13.60;0.82;;;9.50;1.00;;;;;;5033543;28;20170;-80
2024/02/24 12:05:37;;;;;;;13.90;1.10;;;9.10;1.00;;;;;;5034796;28;20260;-81
2024/02/24 12:08:05;;;;;;;14.35;1.15;;;9.20;1.00;;;;;;5034783;28;20657;-80
2024/02/24 12:10:37;;;;;;;15.35;0.98;;;9.50;1.00;;;;;;5033401;28;20196;-81
2024/02/24 12:13:08;;;;;;;13.35;0.90;;;9.50;1.00;;;;;;5034723;28;20223;-80
2024/02/24 12:15:35;;;;;;;16.90;1.23;;;9.80;1.00;;;;;;5034732;28;20159;-80
2024/02/24 12:18:04;;;;;;;13.43;0.80;;;10.20;1.00;;;;;;5033281;28;20260;-81
2024/02/24 12:20:29;;;;;;;13.90;0.90;;;9.90;1.00;;;;;;5035010;28;20228;-80
2024/02/24 12:22:55;;;;;;;13.17;0.80;;;9.80;1.00;;;;;;5038652;28;20193;-80
2024/02/24 12:25:25;;;;;;;13.27;0.90;;;9.30;1.00;;;;;;5037409;28;20170;-80
2024/02/24 12:27:52;;;;;;;14.20;1.15;;;9.40;1.00;;;;;;5038829;28;20236;-80
2024/02/24 12:30:19;;;;;;;13.60;0.98;;;9.60;1.00;;;;;;5037193;28;20193;-80
2024/02/24 12:32:44;;;;;;;13.90;1.17;;;9.30;1.00;;;;;;5038568;28;20219;-80
2024/02/24 12:35:10;;;;;;;14.10;1.30;;;9.10;1.00;;;;;;5038913;28;20248;-81
2024/02/24 12:37:36;;;;;;;13.13;0.77;;;9.00;1.00;;;;;;5037299;28;20236;-80
2024/02/24 12:40:05;;;;;;;14.32;1.10;;;9.00;1.00;;;;;;5038524;28;20184;-81
2024/02/24 12:42:39;;;;;;;13.95;1.10;;;9.00;1.00;;;;;;5036769;28;20270;-80
2024/02/24 12:45:05;;;;;;;13.85;1.10;;;9.30;1.00;;;;;;5038868;28;20508;-80
2024/02/24 12:47:32;;;;;;;13.85;1.30;;;9.50;1.00;;;;;;5036897;28;20173;-81
2024/02/24 12:49:58;;;;;;;13.25;0.90;;;9.10;1.00;;;;;;5040789;28;20186;-81